createdAt,value
2023-03-11T00:02:41.596Z,12.99
2023-03-11T00:06:41.723Z,12.91
2023-03-11T00:10:41.956Z,13.06
2023-03-11T00:14:42.058Z,13.08
2023-03-11T00:18:42.128Z,13.41
2023-03-11T00:22:42.149Z,12.85
2023-03-11T00:26:42.325Z,13.11
2023-03-11T00:30:42.436Z,12.43
2023-03-11T00:34:42.529Z,11.48
2023-03-11T00:38:42.659Z,12.32
2023-03-11T00:42:42.664Z,12.68
2023-03-11T00:46:42.852Z,12.41
2023-03-11T00:50:42.785Z,12.00
2023-03-11T00:54:42.743Z,12.32
2023-03-11T00:58:42.728Z,12.98
2023-03-11T01:02:42.694Z,12.22
2023-03-11T01:06:45.621Z,12.66
2023-03-11T01:10:42.640Z,11.90
2023-03-11T01:14:42.572Z,12.53
2023-03-11T01:18:42.533Z,13.02
2023-03-11T01:22:42.516Z,12.84
2023-03-11T01:26:42.485Z,13.26
2023-03-11T01:30:42.508Z,12.48
2023-03-11T01:34:42.363Z,11.67
2023-03-11T01:38:42.337Z,11.77
2023-03-11T01:42:42.321Z,12.58
2023-03-11T01:46:42.283Z,12.77
2023-03-11T01:50:42.223Z,12.74
2023-03-11T01:54:42.179Z,13.01
2023-03-11T01:58:42.149Z,13.09
2023-03-11T02:02:42.152Z,11.99
2023-03-11T02:06:42.246Z,12.56
2023-03-11T02:10:42.328Z,10.68
2023-03-11T02:14:42.447Z,11.09
2023-03-11T02:18:42.665Z,10.89
2023-03-11T02:22:42.859Z,11.95
2023-03-11T02:26:42.962Z,12.17
2023-03-11T02:30:43.149Z,12.09
2023-03-11T02:34:43.254Z,12.37
2023-03-11T02:38:43.470Z,11.95
2023-03-11T02:42:43.653Z,11.21
2023-03-11T02:46:44.377Z,11.51
2023-03-11T02:50:43.995Z,11.77
2023-03-11T02:54:44.279Z,11.58
2023-03-11T02:58:44.365Z,11.86
2023-03-11T03:02:44.588Z,11.33
2023-03-11T03:06:46.704Z,10.51
2023-03-11T03:10:44.816Z,9.52
2023-03-11T03:14:44.968Z,9.67
2023-03-11T03:18:45.041Z,10.60
2023-03-11T03:22:45.062Z,9.87
2023-03-11T03:26:45.142Z,10.87
2023-03-11T03:30:45.674Z,11.30
2023-03-11T03:34:45.188Z,10.82
2023-03-11T03:38:45.250Z,11.85
2023-03-11T03:42:45.405Z,11.31
2023-03-11T03:46:45.522Z,12.07
2023-03-11T03:50:45.694Z,12.19
2023-03-11T03:54:45.613Z,12.61
2023-03-11T03:58:45.650Z,12.91
2023-03-11T04:02:45.554Z,11.82
2023-03-11T04:06:45.500Z,12.02
2023-03-11T04:10:45.456Z,11.20
2023-03-11T04:14:45.437Z,11.20
2023-03-11T04:18:45.363Z,11.92
2023-03-11T04:22:45.376Z,12.51
2023-03-11T04:26:45.331Z,12.84
2023-03-11T04:30:45.424Z,13.05
2023-03-11T04:34:45.282Z,12.48
2023-03-11T04:38:45.201Z,12.87
2023-03-11T04:42:45.281Z,12.99
2023-03-11T04:46:45.303Z,13.04
2023-03-11T04:50:45.358Z,13.01
2023-03-11T04:54:45.506Z,12.92
2023-03-11T04:58:45.713Z,12.84
2023-03-11T05:02:45.656Z,12.75
2023-03-11T05:06:45.806Z,12.77
2023-03-11T05:10:45.943Z,12.75
2023-03-11T05:14:46.087Z,12.78
2023-03-11T05:18:46.208Z,12.80
2023-03-11T05:22:46.334Z,12.75
2023-03-11T05:26:48.528Z,12.68
2023-03-11T05:30:46.632Z,12.64
2023-03-11T05:34:46.834Z,12.63
2023-03-11T05:38:47.053Z,12.57
2023-03-11T05:42:47.257Z,12.51
2023-03-11T05:46:47.505Z,12.54
2023-03-11T05:50:47.736Z,12.54
2023-03-11T05:54:47.862Z,12.54
2023-03-11T05:58:48.246Z,12.58
2023-03-11T06:02:48.220Z,12.58
2023-03-11T06:06:48.552Z,12.54
2023-03-11T06:10:49.113Z,12.57
2023-03-11T06:14:48.909Z,12.54
2023-03-11T06:18:49.160Z,12.53
2023-03-11T06:22:49.310Z,12.60
2023-03-11T06:26:51.243Z,12.56
2023-03-11T06:30:49.568Z,12.61
2023-03-11T06:34:49.641Z,12.66
2023-03-11T06:38:49.723Z,12.73
2023-03-11T06:42:49.868Z,12.70
2023-03-11T06:46:50.052Z,12.67
2023-03-11T06:50:50.248Z,12.71
2023-03-11T06:54:50.349Z,12.71
2023-03-11T06:58:50.515Z,12.74
2023-03-11T07:02:50.665Z,12.67
2023-03-11T07:06:51.715Z,12.77
2023-03-11T07:10:51.040Z,12.77
2023-03-11T07:14:51.041Z,12.81
2023-03-11T07:18:51.165Z,12.84
2023-03-11T07:22:51.270Z,12.90
2023-03-11T07:26:51.379Z,12.90
2023-03-11T07:30:51.426Z,12.92
2023-03-11T07:34:51.771Z,12.92
2023-03-11T07:38:51.502Z,12.96
2023-03-11T07:42:51.616Z,13.04
2023-03-11T07:46:51.553Z,13.12
2023-03-11T07:50:51.588Z,13.18
2023-03-11T07:54:51.623Z,13.19
2023-03-11T07:58:51.595Z,13.21
2023-03-11T08:02:51.736Z,13.35
2023-03-11T08:06:51.785Z,13.38
2023-03-11T08:10:53.239Z,13.34
2023-03-11T08:14:51.964Z,13.35
2023-03-11T08:18:52.034Z,13.36
2023-03-11T08:22:58.025Z,13.34
2023-03-11T08:26:53.067Z,13.39
2023-03-11T08:30:52.121Z,13.23
2023-03-11T08:34:52.074Z,13.52
2023-03-11T08:38:52.163Z,13.62
2023-03-11T08:42:52.047Z,13.74
2023-03-11T08:46:52.029Z,13.78
2023-03-11T08:50:54.670Z,13.72
2023-03-11T08:54:51.937Z,13.73
2023-03-11T08:58:51.901Z,13.77
2023-03-11T09:02:51.907Z,13.84
2023-03-11T09:06:51.772Z,13.83
2023-03-11T09:10:51.747Z,13.81
2023-03-11T09:14:51.696Z,13.90
2023-03-11T09:18:51.669Z,14.00
2023-03-11T09:22:51.612Z,13.90
2023-03-11T09:26:51.617Z,14.15
2023-03-11T09:30:51.540Z,14.23
2023-03-11T09:34:51.547Z,14.28
2023-03-11T09:38:51.496Z,14.28
2023-03-11T09:42:51.437Z,14.29
2023-03-11T09:46:51.466Z,14.27
2023-03-11T09:50:51.398Z,14.10
2023-03-11T09:54:51.330Z,14.36
2023-03-11T09:58:51.489Z,14.36
2023-03-11T10:02:51.754Z,14.58
2023-03-11T10:06:51.622Z,14.58
2023-03-11T10:10:51.579Z,14.61
2023-03-11T10:14:51.573Z,14.66
2023-03-11T10:18:51.521Z,14.68
2023-03-11T10:22:51.762Z,14.49
2023-03-11T10:26:51.417Z,14.61
2023-03-11T10:30:51.537Z,14.72
2023-03-11T10:34:51.812Z,14.79
2023-03-11T10:38:51.390Z,14.90
2023-03-11T10:42:51.484Z,15.07
2023-03-11T10:46:51.252Z,15.26
2023-03-11T10:50:51.228Z,15.21
2023-03-11T10:54:51.214Z,15.31
2023-03-11T10:58:51.152Z,15.33
2023-03-11T11:02:51.308Z,15.23
2023-03-11T11:06:51.322Z,15.23
2023-03-11T11:10:51.423Z,15.04
2023-03-11T11:14:51.646Z,15.13
2023-03-11T11:18:51.845Z,15.14
2023-03-11T11:22:52.266Z,15.14
2023-03-11T11:26:51.998Z,15.00
2023-03-11T11:30:52.000Z,14.92
2023-03-11T11:34:51.935Z,15.11
2023-03-11T11:38:51.897Z,15.30
2023-03-11T11:42:51.940Z,15.26
2023-03-11T11:46:51.802Z,15.24
2023-03-11T11:50:51.777Z,15.31
2023-03-11T11:54:51.814Z,15.30
2023-03-11T11:58:51.729Z,15.20
2023-03-11T12:02:51.675Z,15.23
2023-03-11T12:06:51.669Z,15.09
2023-03-11T12:10:51.628Z,15.14
2023-03-11T12:14:51.573Z,15.30
2023-03-11T12:18:51.627Z,15.33
2023-03-11T12:22:51.730Z,15.35
2023-03-11T12:26:51.774Z,15.50
2023-03-11T12:30:51.864Z,15.60
2023-03-11T12:34:51.803Z,15.60
2023-03-11T12:38:51.779Z,15.51
2023-03-11T12:42:52.343Z,15.78
2023-03-11T12:46:51.759Z,15.85
2023-03-11T12:50:51.840Z,16.02
2023-03-11T12:54:51.625Z,15.69
2023-03-11T12:58:51.636Z,16.03
2023-03-11T13:02:51.603Z,15.88
2023-03-11T13:06:51.514Z,15.57
2023-03-11T13:10:51.459Z,15.62
2023-03-11T13:14:51.464Z,15.72
2023-03-11T13:18:51.429Z,15.27
2023-03-11T13:22:51.421Z,15.72
2023-03-11T13:26:51.347Z,15.93
2023-03-11T13:30:51.325Z,15.75
2023-03-11T13:34:51.411Z,15.68
2023-03-11T13:38:51.579Z,15.07
2023-03-11T13:42:51.716Z,15.66
2023-03-11T13:46:51.778Z,15.89
2023-03-11T13:50:51.912Z,15.66
2023-03-11T13:54:51.987Z,15.82
2023-03-11T13:58:52.062Z,15.96
2023-03-11T14:02:52.141Z,15.81
2023-03-11T14:06:52.325Z,15.51
2023-03-11T14:10:52.450Z,15.81
2023-03-11T14:14:52.753Z,15.81
2023-03-11T14:18:52.947Z,15.48
2023-03-11T14:22:53.166Z,15.73
2023-03-11T14:26:53.095Z,15.84
2023-03-11T14:30:52.917Z,15.86
2023-03-11T14:34:52.882Z,15.89
2023-03-11T14:38:52.852Z,15.84
2023-03-11T14:42:52.763Z,15.86
2023-03-11T14:46:52.996Z,15.82
2023-03-11T14:50:52.801Z,15.89
2023-03-11T14:54:52.755Z,15.96
2023-03-11T14:59:06.433Z,15.88
2023-03-11T15:02:53.613Z,15.86
2023-03-11T15:06:52.590Z,15.91
2023-03-11T15:10:52.783Z,15.89
2023-03-11T15:14:53.142Z,15.85
2023-03-11T15:18:53.344Z,15.81
2023-03-11T15:22:53.378Z,15.73
2023-03-11T15:26:53.599Z,15.68
2023-03-11T15:30:53.856Z,15.64
2023-03-11T15:34:53.918Z,15.55
2023-03-11T15:38:54.861Z,15.54
2023-03-11T15:42:54.893Z,15.51
2023-03-11T15:46:54.287Z,15.44
2023-03-11T15:50:54.825Z,15.30
2023-03-11T15:54:56.042Z,15.24
2023-03-11T15:58:54.414Z,14.97
2023-03-11T16:02:54.466Z,14.84
2023-03-11T16:07:07.568Z,14.92
2023-03-11T16:10:55.509Z,14.83
2023-03-11T16:14:54.673Z,14.82
2023-03-11T16:18:54.881Z,14.79
2023-03-11T16:22:55.119Z,14.56
2023-03-11T16:26:55.307Z,14.56
2023-03-11T16:30:55.895Z,14.49
2023-03-11T16:34:55.235Z,14.45
2023-03-11T16:38:55.190Z,14.32
2023-03-11T16:42:55.156Z,14.25
2023-03-11T16:46:55.257Z,14.05
2023-03-11T16:50:55.098Z,13.96
2023-03-11T16:54:55.022Z,13.97
2023-03-11T16:58:55.012Z,13.88
2023-03-11T17:02:54.986Z,13.84
2023-03-11T17:06:54.940Z,13.77
2023-03-11T17:10:54.975Z,13.70
2023-03-11T17:14:54.844Z,13.67
2023-03-11T17:18:55.066Z,13.64
2023-03-11T17:22:55.044Z,13.59
2023-03-11T17:26:55.014Z,13.60
2023-03-11T17:30:54.990Z,13.63
2023-03-11T17:34:54.915Z,13.57
2023-03-11T17:38:54.954Z,13.52
2023-03-11T17:42:54.855Z,13.49
2023-03-11T17:46:54.840Z,13.43
2023-03-11T17:50:54.812Z,13.43
2023-03-11T17:54:54.727Z,13.41
2023-03-11T17:58:54.718Z,13.42
2023-03-11T18:02:54.712Z,13.41
2023-03-11T18:06:55.403Z,13.43
2023-03-11T18:10:54.873Z,13.38
2023-03-11T18:14:54.586Z,13.30
2023-03-11T18:18:54.663Z,13.32
2023-03-11T18:22:54.633Z,13.22
2023-03-11T18:26:54.421Z,13.09
2023-03-11T18:30:54.882Z,12.98
2023-03-11T18:34:54.642Z,12.88
2023-03-11T18:38:54.751Z,12.83
2023-03-11T18:42:54.913Z,12.70
2023-03-11T18:46:55.094Z,12.61
2023-03-11T18:50:55.274Z,12.44
2023-03-11T18:54:55.300Z,12.32
2023-03-11T18:58:55.353Z,12.22
2023-03-11T19:02:55.446Z,11.96
2023-03-11T19:06:55.628Z,11.77
2023-03-11T19:10:55.610Z,11.69
2023-03-11T19:14:55.566Z,11.57
2023-03-11T19:18:55.566Z,11.44
2023-03-11T19:22:55.491Z,11.48
2023-03-11T19:26:55.441Z,11.42
2023-03-11T19:30:56.014Z,11.30
2023-03-11T19:34:55.383Z,11.26
2023-03-11T19:38:55.355Z,11.09
2023-03-11T19:42:55.299Z,11.03
2023-03-11T19:46:55.299Z,10.95
2023-03-11T19:50:55.323Z,10.90
2023-03-11T19:54:55.447Z,10.86
2023-03-11T19:58:55.187Z,10.82
2023-03-11T20:02:55.237Z,10.75
2023-03-11T20:06:55.174Z,10.66
2023-03-11T20:10:55.057Z,10.72
2023-03-11T20:14:55.160Z,10.68
2023-03-11T20:18:55.031Z,10.63
2023-03-11T20:22:55.114Z,10.66
2023-03-11T20:26:55.289Z,10.66
2023-03-11T20:30:55.467Z,10.59
2023-03-11T20:34:55.941Z,10.58
2023-03-11T20:38:55.710Z,10.56
2023-03-11T20:42:55.858Z,10.51
2023-03-11T20:46:56.221Z,10.51
2023-03-11T20:50:56.413Z,10.58
2023-03-11T20:54:56.303Z,10.59
2023-03-11T20:58:56.523Z,10.59
2023-03-11T21:02:56.650Z,10.55
2023-03-11T21:06:56.835Z,10.51
2023-03-11T21:10:56.866Z,10.52
2023-03-11T21:14:57.589Z,10.48
2023-03-11T21:18:57.187Z,10.49
2023-03-11T21:22:57.581Z,10.51
2023-03-11T21:26:57.485Z,10.55
2023-03-11T21:30:57.405Z,10.60
2023-03-11T21:34:57.542Z,10.60
2023-03-11T21:38:57.552Z,10.53
2023-03-11T21:42:57.742Z,10.58
2023-03-11T21:46:58.594Z,10.51
2023-03-11T21:50:58.173Z,10.49
2023-03-11T21:54:58.524Z,10.55
2023-03-11T21:58:58.264Z,10.56
2023-03-11T22:02:58.181Z,10.55
2023-03-11T22:06:58.316Z,10.49
2023-03-11T22:10:58.310Z,10.53
2023-03-11T22:14:58.382Z,10.51
2023-03-11T22:18:58.572Z,10.47
2023-03-11T22:22:58.619Z,10.49
2023-03-11T22:27:00.440Z,10.49
2023-03-11T22:30:58.994Z,10.52
2023-03-11T22:34:59.183Z,10.48
2023-03-11T22:38:59.344Z,10.51
2023-03-11T22:42:59.523Z,10.49
2023-03-11T22:46:59.702Z,10.45
2023-03-11T22:50:59.935Z,10.48
2023-03-11T22:55:00.102Z,10.47
2023-03-11T22:59:00.244Z,10.52
2023-03-11T23:03:00.477Z,10.51
2023-03-11T23:07:00.583Z,10.45
2023-03-11T23:11:00.932Z,10.45
2023-03-11T23:15:00.986Z,10.45
2023-03-11T23:19:01.193Z,10.48
2023-03-11T23:23:01.373Z,10.47
2023-03-11T23:27:03.474Z,10.44
2023-03-11T23:31:01.717Z,10.44
2023-03-11T23:35:01.985Z,10.48
2023-03-11T23:39:02.961Z,10.45
2023-03-11T23:43:02.297Z,10.39
2023-03-11T23:47:02.459Z,10.39
2023-03-11T23:51:02.595Z,10.44
2023-03-11T23:55:03.111Z,10.41
2023-03-11T23:59:02.952Z,10.42
